createdAt,value
2019-03-03T00:02:09.230Z,95291.95
2019-03-03T00:04:39.221Z,95286.84
2019-03-03T00:07:10.305Z,95300.45
2019-03-03T00:09:41.239Z,95293.83
2019-03-03T00:12:11.292Z,95291.50
2019-03-03T00:14:41.306Z,95302.53
2019-03-03T00:17:11.229Z,95302.33
2019-03-03T00:19:41.326Z,95301.91
2019-03-03T00:22:11.924Z,95299.27
2019-03-03T00:24:41.949Z,95291.84
2019-03-03T00:27:11.935Z,95295.02
2019-03-03T00:29:41.807Z,95288.35
2019-03-03T00:32:11.747Z,95295.22
2019-03-03T00:34:41.802Z,95293.94
2019-03-03T00:37:23.853Z,95299.80
2019-03-03T00:40:15.612Z,95299.42
2019-03-03T00:42:54.325Z,95280.61
2019-03-03T00:45:58.709Z,95290.92
2019-03-03T00:48:34.738Z,95289.77
2019-03-03T00:51:10.997Z,95286.67
2019-03-03T00:54:09.076Z,95278.20
2019-03-03T00:56:45.213Z,95280.58
2019-03-03T00:59:22.951Z,95283.90
2019-03-03T01:02:01.498Z,95279.91
2019-03-03T01:04:49.332Z,95288.49
2019-03-03T01:07:27.904Z,95290.68
2019-03-03T01:10:14.944Z,95276.30
2019-03-03T01:13:02.252Z,95268.84
2019-03-03T01:15:52.277Z,95268.57
2019-03-03T01:18:38.603Z,95274.95
2019-03-03T01:21:14.818Z,95275.44
2019-03-03T01:24:12.559Z,95276.95
2019-03-03T01:26:42.469Z,95269.60
2019-03-03T01:29:13.188Z,95270.53
2019-03-03T01:31:43.077Z,95271.64
2019-03-03T01:34:14.836Z,95280.30
2019-03-03T01:36:44.717Z,95267.41
2019-03-03T01:39:14.672Z,95259.98
2019-03-03T01:41:44.582Z,95265.73
2019-03-03T01:44:14.526Z,95269.57
2019-03-03T01:46:44.498Z,95267.72
2019-03-03T01:49:14.389Z,95271.47
2019-03-03T01:51:44.478Z,95265.40
2019-03-03T01:54:15.508Z,95272.58
2019-03-03T01:56:45.375Z,95273.20
2019-03-03T01:59:15.269Z,95279.96
2019-03-03T02:01:45.207Z,95273.30
2019-03-03T02:04:16.154Z,95285.24
2019-03-03T02:06:46.106Z,95271.50
2019-03-03T02:09:16.072Z,95274.75
2019-03-03T02:11:46.097Z,95267.64
2019-03-03T02:14:16.017Z,95266.13
2019-03-03T02:16:45.907Z,95268.82
2019-03-03T02:19:15.884Z,95255.33
2019-03-03T02:21:45.869Z,95262.39
2019-03-03T02:24:16.193Z,95271.98
2019-03-03T02:26:46.020Z,95257.64
2019-03-03T02:29:15.972Z,95268.73
2019-03-03T02:31:45.950Z,95258.15
2019-03-03T02:34:15.892Z,95259.08
2019-03-03T02:36:45.855Z,95264.20
2019-03-03T02:39:19.405Z,95256.53
2019-03-03T02:41:49.295Z,95252.32
2019-03-03T02:44:19.414Z,95253.73
2019-03-03T02:46:49.445Z,95254.29
2019-03-03T02:49:19.465Z,95247.59
2019-03-03T02:51:49.332Z,95248.19
2019-03-03T02:54:19.289Z,95253.47
2019-03-03T02:56:49.222Z,95248.39
2019-03-03T02:59:19.133Z,95250.12
2019-03-03T03:01:55.832Z,95242.70
2019-03-03T03:04:26.405Z,95246.77
2019-03-03T03:07:01.907Z,95255.19
2019-03-03T03:09:47.844Z,95251.59
2019-03-03T03:12:29.482Z,95239.80
2019-03-03T03:15:27.784Z,95253.02
2019-03-03T03:18:13.758Z,95246.98
2019-03-03T03:20:51.810Z,95252.63
2019-03-03T03:23:35.200Z,95246.73
2019-03-03T03:26:22.541Z,95232.69
2019-03-03T03:28:59.706Z,95239.56
2019-03-03T03:32:03.649Z,95239.15
2019-03-03T03:34:38.227Z,95231.94
2019-03-03T03:37:14.225Z,95228.42
2019-03-03T03:40:12.287Z,95234.45
2019-03-03T03:43:13.176Z,95234.31
2019-03-03T03:46:09.633Z,95230.88
2019-03-03T03:49:02.432Z,95228.91
2019-03-03T03:51:50.923Z,95236.39
2019-03-03T03:54:58.113Z,95242.14
2019-03-03T03:57:47.179Z,95239.63
2019-03-03T04:00:32.886Z,95234.14
2019-03-03T04:03:37.425Z,95239.46
2019-03-03T04:06:29.321Z,95244.70
2019-03-03T04:09:16.894Z,95247.36
2019-03-03T04:11:57.323Z,95249.15
2019-03-03T04:14:43.253Z,95257.12
2019-03-03T04:17:28.993Z,95242.73
2019-03-03T04:20:18.040Z,95240.22
2019-03-03T04:23:05.856Z,95248.66
2019-03-03T04:25:53.566Z,95246.80
2019-03-03T04:28:49.031Z,95246.63
2019-03-03T04:31:53.410Z,95251.98
2019-03-03T04:34:44.958Z,95258.56
2019-03-03T04:37:32.388Z,95251.73
2019-03-03T04:40:13.312Z,95252.63
2019-03-03T04:43:11.377Z,95256.53
2019-03-03T04:45:54.403Z,95254.32
2019-03-03T04:48:29.705Z,95257.02
2019-03-03T04:51:12.665Z,95243.52
2019-03-03T04:54:13.542Z,95245.33
2019-03-03T04:57:20.718Z,95235.17
2019-03-03T05:00:15.417Z,95237.11
2019-03-03T05:03:16.532Z,95237.77
2019-03-03T05:06:11.656Z,95232.91
2019-03-03T05:08:55.164Z,95218.07
2019-03-03T05:12:23.461Z,95220.09
2019-03-03T05:14:56.562Z,95209.33
2019-03-03T05:17:33.485Z,95208.75
2019-03-03T05:20:03.653Z,95218.80
2019-03-03T05:22:33.592Z,95210.56
2019-03-03T05:25:03.567Z,95213.42
2019-03-03T05:27:33.550Z,95212.66
2019-03-03T05:30:03.843Z,95213.98
2019-03-03T05:32:33.805Z,95205.47
2019-03-03T05:35:03.790Z,95214.73
2019-03-03T05:37:33.656Z,95205.06
2019-03-03T05:40:03.797Z,95201.92
2019-03-03T05:42:33.748Z,95202.11
2019-03-03T05:45:03.761Z,95208.79
2019-03-03T05:47:33.584Z,95200.73
2019-03-03T05:50:03.668Z,95189.73
2019-03-03T05:52:33.488Z,95193.77
2019-03-03T05:55:03.448Z,95186.96
2019-03-03T05:57:33.336Z,95199.84
2019-03-03T06:00:03.444Z,95194.45
2019-03-03T06:02:33.286Z,95205.36
2019-03-03T06:05:03.177Z,95202.53
2019-03-03T06:07:33.171Z,95200.58
2019-03-03T06:10:03.198Z,95203.27
2019-03-03T06:12:33.016Z,95198.87
2019-03-03T06:15:03.583Z,95200.15
2019-03-03T06:17:33.492Z,95210.86
2019-03-03T06:20:03.527Z,95203.24
2019-03-03T06:22:33.409Z,95197.82
2019-03-03T06:25:03.356Z,95197.69
2019-03-03T06:27:33.193Z,95200.52
2019-03-03T06:30:03.089Z,95196.41
2019-03-03T06:32:32.943Z,95196.41
2019-03-03T06:35:02.885Z,95189.03
2019-03-03T06:37:32.749Z,95192.20
2019-03-03T06:40:02.653Z,95192.02
2019-03-03T06:42:32.599Z,95189.25
2019-03-03T06:45:02.487Z,95193.97
2019-03-03T06:47:32.440Z,95193.63
2019-03-03T06:50:03.375Z,95200.55
2019-03-03T06:52:33.285Z,95194.73
2019-03-03T06:55:03.118Z,95189.44
2019-03-03T06:57:33.060Z,95194.78
2019-03-03T07:00:03.406Z,95192.17
2019-03-03T07:02:33.404Z,95196.71
2019-03-03T07:05:03.526Z,95191.28
2019-03-03T07:07:33.412Z,95191.83
2019-03-03T07:10:03.354Z,95183.59
2019-03-03T07:12:33.278Z,95179.70
2019-03-03T07:15:03.257Z,95184.73
2019-03-03T07:17:33.244Z,95169.41
2019-03-03T07:20:03.226Z,95184.77
2019-03-03T07:22:33.196Z,95172.76
2019-03-03T07:25:03.180Z,95176.30
2019-03-03T07:27:33.143Z,95174.89
2019-03-03T07:30:03.161Z,95178.38
2019-03-03T07:32:34.913Z,95179.95
2019-03-03T07:35:05.043Z,95170.33
2019-03-03T07:37:34.957Z,95172.59
2019-03-03T07:40:05.843Z,95168.72
2019-03-03T07:42:35.781Z,95164.70
2019-03-03T07:45:06.288Z,95167.46
2019-03-03T07:47:36.179Z,95175.61
2019-03-03T07:50:06.486Z,95175.55
2019-03-03T07:52:36.350Z,95181.52
2019-03-03T07:55:06.724Z,95176.96
2019-03-03T07:57:36.696Z,95182.99
2019-03-03T08:00:08.611Z,95179.95
2019-03-03T08:02:38.648Z,95181.53
2019-03-03T08:05:08.741Z,95180.98
2019-03-03T08:07:38.786Z,95186.67
2019-03-03T08:10:09.849Z,95190.20
2019-03-03T08:12:39.813Z,95198.06
2019-03-03T08:15:09.804Z,95184.70
2019-03-03T08:17:40.405Z,95183.14
2019-03-03T08:20:11.793Z,95180.11
2019-03-03T08:22:41.769Z,95163.73
2019-03-03T08:25:12.861Z,95170.80
2019-03-03T08:27:43.890Z,95179.70
2019-03-03T08:30:13.900Z,95166.77
2019-03-03T08:32:43.914Z,95166.02
2019-03-03T08:35:14.646Z,95167.09
2019-03-03T08:37:44.635Z,95159.50
2019-03-03T08:40:15.530Z,95153.59
2019-03-03T08:42:53.468Z,95159.73
2019-03-03T08:45:45.924Z,95175.50
2019-03-03T08:48:33.274Z,95151.48
2019-03-03T08:51:15.184Z,95157.39
2019-03-03T08:53:53.482Z,95157.06
2019-03-03T08:56:34.099Z,95159.02
2019-03-03T08:59:10.378Z,95169.46
2019-03-03T09:01:58.520Z,95164.93
2019-03-03T09:04:53.600Z,95157.83
2019-03-03T09:07:35.352Z,95164.30
2019-03-03T09:10:13.015Z,95160.52
2019-03-03T09:12:51.470Z,95151.05
2019-03-03T09:15:46.242Z,95146.52
2019-03-03T09:18:35.251Z,95133.79
2019-03-03T09:21:30.101Z,95126.40
2019-03-03T09:24:22.035Z,95139.91
2019-03-03T09:27:04.780Z,95127.05
2019-03-03T09:30:02.938Z,95136.95
2019-03-03T09:32:51.968Z,95117.11
2019-03-03T09:35:33.769Z,95131.20
2019-03-03T09:38:12.113Z,95113.18
2019-03-03T09:41:05.434Z,95119.78
2019-03-03T09:43:46.575Z,95121.51
2019-03-03T09:46:26.671Z,95120.99
2019-03-03T09:49:27.994Z,95126.70
2019-03-03T09:52:14.543Z,95115.86
2019-03-03T09:55:07.387Z,95118.98
2019-03-03T09:57:45.897Z,95122.28
2019-03-03T10:00:34.293Z,95114.54
2019-03-03T10:03:16.974Z,95115.58
2019-03-03T10:06:01.200Z,95113.95
2019-03-03T10:09:03.460Z,95115.59
2019-03-03T10:11:52.869Z,95112.27
2019-03-03T10:14:40.698Z,95119.59
2019-03-03T10:17:29.874Z,95123.86
2019-03-03T10:20:21.750Z,95115.47
2019-03-03T10:23:16.829Z,95117.05
2019-03-03T10:26:13.154Z,95119.95
2019-03-03T10:28:56.892Z,95123.44
2019-03-03T10:31:39.894Z,95108.45
2019-03-03T10:34:15.007Z,95098.20
2019-03-03T10:37:22.318Z,95100.87
2019-03-03T10:40:12.724Z,95111.07
2019-03-03T10:43:00.150Z,95083.23
2019-03-03T10:45:50.197Z,95092.05
2019-03-03T10:48:37.964Z,95085.53
2019-03-03T10:51:25.837Z,95096.41
2019-03-03T10:54:06.939Z,95094.13
2019-03-03T10:56:46.147Z,95089.69
2019-03-03T10:59:30.016Z,95087.95
2019-03-03T11:02:14.964Z,95084.27
2019-03-03T11:05:13.103Z,95088.25
2019-03-03T11:08:10.194Z,95074.69
2019-03-03T11:10:57.768Z,95078.66
2019-03-03T11:13:47.141Z,95060.82
2019-03-03T11:16:43.570Z,95070.81
2019-03-03T11:19:20.194Z,95059.93
2019-03-03T11:22:09.192Z,95070.89
2019-03-03T11:24:57.328Z,95090.61
2019-03-03T11:27:36.061Z,95081.07
2019-03-03T11:30:09.366Z,95079.00
2019-03-03T11:32:56.953Z,95067.55
2019-03-03T11:35:51.702Z,95107.93
2019-03-03T11:38:49.774Z,95101.77
2019-03-03T11:41:38.764Z,95069.06
2019-03-03T11:44:21.397Z,95082.38
2019-03-03T11:47:07.844Z,95062.20
2019-03-03T11:50:03.238Z,95051.25
2019-03-03T11:52:45.717Z,95046.21
2019-03-03T11:55:44.060Z,95039.20
2019-03-03T11:58:31.651Z,95043.92
2019-03-03T12:01:20.748Z,95046.14
2019-03-03T12:04:06.887Z,95038.36
2019-03-03T12:06:44.224Z,95034.20
2019-03-03T12:09:32.227Z,95021.11
2019-03-03T12:12:36.277Z,95017.89
2019-03-03T12:15:35.157Z,95023.41
2019-03-03T12:18:20.463Z,95015.06
2019-03-03T12:21:12.491Z,95008.72
2019-03-03T12:23:54.396Z,95001.42
2019-03-03T12:26:43.003Z,95012.38
2019-03-03T12:29:22.865Z,94988.45
2019-03-03T12:32:11.574Z,94984.29
2019-03-03T12:35:06.684Z,94976.39
2019-03-03T12:37:48.120Z,94969.59
2019-03-03T12:40:37.035Z,94980.70
2019-03-03T12:43:16.427Z,94987.19
2019-03-03T12:45:56.719Z,95012.73
2019-03-03T12:48:36.715Z,94994.94
2019-03-03T12:51:24.351Z,94979.81
2019-03-03T12:54:05.112Z,95000.23
2019-03-03T12:57:00.098Z,94982.10
2019-03-03T12:59:41.316Z,94979.91
2019-03-03T13:02:29.147Z,94979.40
2019-03-03T13:05:18.114Z,94978.17
2019-03-03T13:07:54.628Z,94965.41
2019-03-03T13:10:42.161Z,94965.39
2019-03-03T13:13:32.646Z,94951.70
2019-03-03T13:16:27.568Z,94962.03
2019-03-03T13:19:16.481Z,94960.48
2019-03-03T13:22:18.069Z,94940.83
2019-03-03T13:24:57.848Z,94950.42
2019-03-03T13:27:54.327Z,94943.98
2019-03-03T13:30:55.398Z,94938.76
2019-03-03T13:33:50.988Z,94922.61
2019-03-03T13:36:38.931Z,94926.79
2019-03-03T13:39:48.128Z,94924.98
2019-03-03T13:42:27.738Z,94908.29
2019-03-03T13:44:57.608Z,94906.88
2019-03-03T13:47:28.262Z,94902.67
2019-03-03T13:49:58.262Z,94896.63
2019-03-03T13:52:28.283Z,94900.03
2019-03-03T13:54:58.279Z,94898.33
2019-03-03T13:57:30.866Z,94908.58
2019-03-03T14:00:02.305Z,94894.14
2019-03-03T14:02:34.979Z,94884.66
2019-03-03T14:05:05.845Z,94883.45
2019-03-03T14:07:35.810Z,94882.17
2019-03-03T14:10:07.795Z,94872.98
2019-03-03T14:12:38.484Z,94877.69
2019-03-03T14:15:10.002Z,94873.09
2019-03-03T14:17:40.366Z,94861.41
2019-03-03T14:20:13.448Z,94852.30
2019-03-03T14:22:43.418Z,94859.59
2019-03-03T14:25:14.000Z,94859.44
2019-03-03T14:27:44.060Z,94849.05
2019-03-03T14:30:16.444Z,94853.63
2019-03-03T14:32:46.472Z,94859.56
2019-03-03T14:35:16.874Z,94841.45
2019-03-03T14:37:46.857Z,94842.73
2019-03-03T14:40:17.763Z,94839.27
2019-03-03T14:42:48.029Z,94843.34
2019-03-03T14:45:18.361Z,94855.16
2019-03-03T14:47:49.479Z,94838.34
2019-03-03T14:50:19.926Z,94843.52
2019-03-03T14:52:50.385Z,94823.69
2019-03-03T14:55:20.523Z,94816.64
2019-03-03T14:57:50.488Z,94811.75
2019-03-03T15:00:27.946Z,94821.91
2019-03-03T15:02:59.412Z,94814.99
2019-03-03T15:05:29.618Z,94816.23
2019-03-03T15:07:59.670Z,94803.47
2019-03-03T15:10:29.672Z,94790.66
2019-03-03T15:13:00.196Z,94789.59
2019-03-03T15:15:31.115Z,94781.42
2019-03-03T15:18:01.285Z,94781.91
2019-03-03T15:20:31.770Z,94786.80
2019-03-03T15:23:01.746Z,94784.69
2019-03-03T15:25:31.820Z,94787.27
2019-03-03T15:28:01.825Z,94773.63
2019-03-03T15:30:32.443Z,94774.38
2019-03-03T15:33:02.362Z,94773.91
2019-03-03T15:35:32.388Z,94767.56
2019-03-03T15:38:02.414Z,94760.78
2019-03-03T15:40:32.485Z,94763.73
2019-03-03T15:43:02.583Z,94754.62
2019-03-03T15:45:32.624Z,94752.14
2019-03-03T15:48:02.650Z,94753.02
2019-03-03T15:50:32.639Z,94764.68
2019-03-03T15:53:02.776Z,94751.17
2019-03-03T15:55:32.869Z,94752.02
2019-03-03T15:58:02.846Z,94751.02
2019-03-03T16:00:33.866Z,94751.17
2019-03-03T16:03:04.242Z,94740.98
2019-03-03T16:05:34.188Z,94751.52
2019-03-03T16:08:04.229Z,94745.03
2019-03-03T16:10:34.071Z,94733.86
2019-03-03T16:13:04.144Z,94732.85
2019-03-03T16:15:34.141Z,94732.20
2019-03-03T16:18:04.139Z,94723.91
2019-03-03T16:20:34.159Z,94721.92
2019-03-03T16:23:04.205Z,94727.33
2019-03-03T16:25:34.233Z,94716.96
2019-03-03T16:28:04.240Z,94727.30
2019-03-03T16:30:34.264Z,94719.08
2019-03-03T16:33:04.199Z,94719.02
2019-03-03T16:35:35.227Z,94722.42
2019-03-03T16:38:05.221Z,94724.73
2019-03-03T16:40:39.635Z,94726.02
2019-03-03T16:43:07.045Z,94747.06
2019-03-03T16:45:37.019Z,94726.41
2019-03-03T16:48:06.990Z,94723.06
2019-03-03T16:50:37.034Z,94728.85
2019-03-03T16:53:07.065Z,94712.14
2019-03-03T16:55:37.027Z,94707.99
2019-03-03T16:58:07.063Z,94715.95
2019-03-03T17:00:36.960Z,94719.59
2019-03-03T17:03:07.020Z,94729.59
2019-03-03T17:05:37.082Z,94714.02
2019-03-03T17:08:07.043Z,94720.95
2019-03-03T17:10:36.907Z,94717.09
2019-03-03T17:13:07.037Z,94713.98
2019-03-03T17:15:37.025Z,94706.77
2019-03-03T17:18:07.126Z,94700.77
2019-03-03T17:20:36.988Z,94697.27
2019-03-03T17:23:06.977Z,94696.91
2019-03-03T17:25:36.981Z,94693.12
2019-03-03T17:28:07.016Z,94700.62
2019-03-03T17:30:37.118Z,94698.69
2019-03-03T17:33:07.050Z,94698.33
2019-03-03T17:35:37.011Z,94693.40
2019-03-03T17:38:07.013Z,94691.05
2019-03-03T17:40:36.899Z,94697.14
2019-03-03T17:43:06.924Z,94701.28
2019-03-03T17:45:37.047Z,94695.19
2019-03-03T17:48:07.058Z,94684.08
2019-03-03T17:50:37.115Z,94680.04
2019-03-03T17:53:07.040Z,94690.32
2019-03-03T17:55:37.110Z,94684.89
2019-03-03T17:58:07.050Z,94681.53
2019-03-03T18:00:38.677Z,94673.97
2019-03-03T18:03:08.664Z,94671.75
2019-03-03T18:05:38.732Z,94674.50
2019-03-03T18:08:08.754Z,94667.67
2019-03-03T18:10:38.788Z,94666.80
2019-03-03T18:13:08.790Z,94665.23
2019-03-03T18:15:38.760Z,94660.25
2019-03-03T18:18:08.731Z,94663.88
2019-03-03T18:20:38.772Z,94654.94
2019-03-03T18:23:08.812Z,94654.57
2019-03-03T18:25:39.517Z,94653.20
2019-03-03T18:28:10.336Z,94647.16
2019-03-03T18:30:40.659Z,94653.62
2019-03-03T18:33:11.704Z,94645.47
2019-03-03T18:35:41.535Z,94646.05
2019-03-03T18:38:11.428Z,94646.09
2019-03-03T18:40:41.416Z,94644.60
2019-03-03T18:43:12.432Z,94630.78
2019-03-03T18:45:42.418Z,94641.75
2019-03-03T18:48:12.688Z,94645.22
2019-03-03T18:50:42.671Z,94636.03
2019-03-03T18:53:12.741Z,94632.89
2019-03-03T18:55:43.763Z,94643.28
2019-03-03T18:58:13.746Z,94625.11
2019-03-03T19:00:43.756Z,94624.12
2019-03-03T19:03:13.882Z,94613.28
2019-03-03T19:05:43.891Z,94607.23
2019-03-03T19:08:13.767Z,94607.69
2019-03-03T19:10:43.711Z,94594.86
2019-03-03T19:13:13.734Z,94602.06
2019-03-03T19:15:43.778Z,94599.70
2019-03-03T19:18:13.778Z,94600.20
2019-03-03T19:20:43.720Z,94601.03
2019-03-03T19:23:13.605Z,94609.06
2019-03-03T19:25:43.620Z,94607.57
2019-03-03T19:28:13.487Z,94614.11
2019-03-03T19:30:43.520Z,94609.42
2019-03-03T19:33:35.022Z,94608.34
2019-03-03T19:36:06.142Z,94609.19
2019-03-03T19:38:36.135Z,94608.84
2019-03-03T19:41:06.173Z,94609.88
2019-03-03T19:43:36.141Z,94597.67
2019-03-03T19:46:06.610Z,94600.45
2019-03-03T19:48:36.684Z,94599.08
2019-03-03T19:51:06.803Z,94594.33
2019-03-03T19:53:36.864Z,94588.99
2019-03-03T19:56:06.900Z,94585.97
2019-03-03T19:58:36.883Z,94588.89
2019-03-03T20:01:07.235Z,94586.48
2019-03-03T20:03:37.195Z,94588.69
2019-03-03T20:06:07.248Z,94581.34
2019-03-03T20:08:37.149Z,94584.41
2019-03-03T20:11:08.043Z,94580.80
2019-03-03T20:13:38.167Z,94579.84
2019-03-03T20:16:08.101Z,94578.97
2019-03-03T20:18:38.128Z,94581.09
2019-03-03T20:21:08.110Z,94575.97
2019-03-03T20:23:37.993Z,94575.47
2019-03-03T20:26:08.394Z,94576.48
2019-03-03T20:28:38.676Z,94571.08
2019-03-03T20:31:08.721Z,94570.49
2019-03-03T20:33:38.689Z,94572.30
2019-03-03T20:36:09.794Z,94575.38
2019-03-03T20:38:39.792Z,94577.52
2019-03-03T20:41:09.759Z,94573.17
2019-03-03T20:43:39.745Z,94571.07
2019-03-03T20:46:09.800Z,94576.13
2019-03-03T20:48:39.823Z,94577.28
2019-03-03T20:51:09.774Z,94573.03
2019-03-03T20:53:39.783Z,94565.34
2019-03-03T20:56:09.773Z,94568.84
2019-03-03T20:58:39.799Z,94568.64
2019-03-03T21:01:09.777Z,94568.80
2019-03-03T21:03:39.689Z,94563.38
2019-03-03T21:06:09.746Z,94565.16
2019-03-03T21:08:39.705Z,94557.55
2019-03-03T21:11:09.578Z,94557.21
2019-03-03T21:13:39.488Z,94555.01
2019-03-03T21:16:09.458Z,94553.23
2019-03-03T21:18:39.320Z,94539.91
2019-03-03T21:21:09.684Z,94545.60
2019-03-03T21:23:39.614Z,94540.89
2019-03-03T21:26:09.636Z,94533.69
2019-03-03T21:28:39.488Z,94538.28
2019-03-03T21:31:09.521Z,94530.57
2019-03-03T21:33:39.422Z,94536.56
2019-03-03T21:36:09.269Z,94528.29
2019-03-03T21:38:39.153Z,94529.21
2019-03-03T21:41:09.044Z,94529.42
2019-03-03T21:43:39.020Z,94533.77
2019-03-03T21:46:09.019Z,94527.64
2019-03-03T21:48:38.972Z,94523.88
2019-03-03T21:51:08.997Z,94531.78
2019-03-03T21:53:38.958Z,94531.92
2019-03-03T21:56:08.867Z,94534.46
2019-03-03T21:58:38.889Z,94533.89
2019-03-03T22:01:08.859Z,94526.21
2019-03-03T22:03:40.500Z,94522.53
2019-03-03T22:06:10.401Z,94515.83
2019-03-03T22:08:40.283Z,94520.48
2019-03-03T22:11:10.337Z,94520.92
2019-03-03T22:13:40.386Z,94510.80
2019-03-03T22:16:10.328Z,94516.62
2019-03-03T22:18:40.348Z,94510.53
2019-03-03T22:21:10.361Z,94514.31
2019-03-03T22:23:40.223Z,94515.52
2019-03-03T22:26:10.219Z,94503.41
2019-03-03T22:28:40.175Z,94504.98
2019-03-03T22:31:10.293Z,94500.94
2019-03-03T22:33:40.327Z,94490.69
2019-03-03T22:36:10.504Z,94492.75
2019-03-03T22:38:41.574Z,94490.69
2019-03-03T22:41:11.546Z,94485.56
2019-03-03T22:43:41.382Z,94485.89
2019-03-03T22:46:11.329Z,94482.54
2019-03-03T22:48:41.187Z,94483.44
2019-03-03T22:51:11.147Z,94483.36
2019-03-03T22:53:41.052Z,94478.76
2019-03-03T22:56:11.011Z,94474.89
2019-03-03T22:58:40.924Z,94473.14
2019-03-03T23:01:15.357Z,94470.98
2019-03-03T23:04:17.003Z,94470.25
2019-03-03T23:06:55.440Z,94461.20
2019-03-03T23:10:11.159Z,94455.41
2019-03-03T23:12:49.345Z,94455.22
2019-03-03T23:15:39.202Z,94448.61
2019-03-03T23:18:27.756Z,94446.05
2019-03-03T23:21:25.631Z,94446.34
2019-03-03T23:24:31.637Z,94439.45
2019-03-03T23:27:01.452Z,94432.36
2019-03-03T23:29:31.419Z,94423.31
2019-03-03T23:32:01.325Z,94424.39
2019-03-03T23:34:31.330Z,94421.20
2019-03-03T23:37:01.290Z,94408.48
2019-03-03T23:39:31.119Z,94406.95
2019-03-03T23:42:00.996Z,94407.14
2019-03-03T23:44:30.912Z,94403.80
2019-03-03T23:47:00.843Z,94399.59
2019-03-03T23:49:30.740Z,94400.72
2019-03-03T23:52:00.632Z,94395.48
2019-03-03T23:54:30.541Z,94395.14
2019-03-03T23:57:00.486Z,94383.39
2019-03-03T23:59:30.344Z,94380.14
